Time;durP1;ratioP1;P1;durP2;ratioP2;P2;SDS_P1;SDS_P2;PMS_P1;PMS_P2;Temp;Humidity;BMP_temperature;BMP_pressure;BME280_temperature;BME280_humidity;BME280_pressure;Samples;Min_cycle;Max_cycle;Signal;HPM_P1;HPM_P2
2023/01/28 07:05:39;;;;;;;55.97;39.75;;;;;;;22.65;33.78;102805.50;5090892;28;20157;-45
2023/01/28 07:08:08;;;;;;;52.97;38.72;;;;;;;22.95;33.11;102800.78;5070011;28;20113;-44
2023/01/28 07:10:37;;;;;;;54.72;38.30;;;;;;;23.15;32.51;102792.97;5069583;28;20112;-42
2023/01/28 07:13:05;;;;;;;52.22;35.53;;;;;;;23.29;32.05;102797.13;5070127;28;20040;-45
2023/01/28 07:27:53;;;;;;;42.38;29.45;;;;;;;23.30;31.87;102808.53;4996579;27;3788292;-40
2023/01/28 07:30:23;;;;;;;40.22;28.70;;;;;;;23.46;31.93;102799.63;5110830;28;20032;-40
2023/01/28 07:32:56;;;;;;;38.80;27.63;;;;;;;23.54;31.64;102807.81;5110561;28;20036;-56
2023/01/28 07:35:25;;;;;;;35.50;25.67;;;;;;;23.60;31.78;102800.22;5110650;28;20023;-49
2023/01/28 07:37:55;;;;;;;40.13;24.88;;;;;;;23.66;31.51;102811.88;5092278;28;20477;-52
2023/01/28 07:40:24;;;;;;;35.97;24.08;;;;;;;23.69;31.49;102812.84;5110314;28;20445;-43
2023/01/28 07:42:54;;;;;;;32.92;23.63;;;;;;;23.69;31.34;102812.84;5110833;28;20034;-40
2023/01/28 07:45:24;;;;;;;31.90;22.45;;;;;;;23.71;31.21;102813.81;5110401;28;20066;-46
2023/01/28 07:48:04;;;;;;;29.88;21.38;;;;;;;23.67;31.53;102810.13;5110531;28;20028;-52
2023/01/28 07:50:34;;;;;;;30.25;20.63;;;;;;;23.70;30.91;102817.25;5110501;28;20378;-56
2023/01/28 07:53:07;;;;;;;31.27;20.83;;;;;;;23.70;31.13;102817.25;5110168;28;20028;-50
2023/01/28 07:55:36;;;;;;;27.73;18.70;;;;;;;23.71;31.27;102812.06;5110085;28;20038;-55
2023/01/28 07:58:06;;;;;;;23.67;18.00;;;;;;;23.71;31.48;102825.16;5110272;28;20098;-40
2023/01/28 08:00:36;;;;;;;25.95;16.85;;;;;;;23.71;31.02;102821.66;5110200;28;20024;-54
2023/01/28 08:03:06;;;;;;;26.10;17.58;;;;;;;23.75;30.84;102824.47;5089632;28;20409;-52
2023/01/28 08:05:54;;;;;;;26.13;16.20;;;;;;;23.74;31.50;102822.69;5108021;28;20043;-48
2023/01/28 08:08:22;;;;;;;24.27;16.92;;;;;;;23.75;30.83;102827.09;5106764;28;20046;-54
2023/01/28 08:10:50;;;;;;;21.83;15.30;;;;;;;23.76;30.98;102836.75;5108463;28;20047;-48
2023/01/28 08:13:18;;;;;;;22.55;13.68;;;;;;;23.81;30.72;102840.47;5108639;28;20020;-50
2023/01/28 08:15:46;;;;;;;20.27;14.00;;;;;;;23.85;30.71;102840.59;5108090;28;20058;-39
2023/01/28 08:18:15;;;;;;;22.60;13.95;;;;;;;23.94;30.87;102846.25;5108377;28;20121;-55
2023/01/28 08:20:43;;;;;;;20.55;13.20;;;;;;;23.89;30.85;102851.28;5108174;28;20118;-49
2023/01/28 08:23:15;;;;;;;19.42;12.48;;;;;;;23.92;30.73;102856.63;5108448;28;20027;-52
2023/01/28 08:25:42;;;;;;;15.00;11.63;;;;;;;23.89;30.64;102853.00;5106668;28;20136;-51
2023/01/28 08:28:11;;;;;;;16.15;11.25;;;;;;;23.88;30.68;102859.97;5095734;28;20107;-40
2023/01/28 08:30:39;;;;;;;19.50;11.52;;;;;;;23.87;30.47;102865.13;5075209;28;20016;-56
2023/01/28 08:33:08;;;;;;;20.60;11.13;;;;;;;23.87;30.44;102870.38;5094459;28;20024;-51
2023/01/28 08:35:35;;;;;;;17.80;10.82;;;;;;;23.85;30.21;102886.06;5076157;28;20039;-53
2023/01/28 08:38:04;;;;;;;16.70;10.90;;;;;;;23.85;30.42;102887.75;5094174;28;20028;-55
2023/01/28 08:40:31;;;;;;;16.52;9.52;;;;;;;23.85;30.69;102885.13;5076285;28;20028;-40
2023/01/28 08:42:59;;;;;;;17.92;9.65;;;;;;;23.88;30.54;102890.53;5094269;28;20028;-52
2023/01/28 08:45:29;;;;;;;16.20;9.95;;;;;;;23.83;30.95;102888.59;5094293;28;20115;-55
2023/01/28 08:47:58;;;;;;;14.35;9.45;;;;;;;23.84;30.92;102886.88;5094143;28;20031;-55
2023/01/28 08:50:28;;;;;;;15.00;8.68;;;;;;;23.86;30.87;102887.84;5076505;28;20489;-46
2023/01/28 08:52:57;;;;;;;13.15;8.70;;;;;;;23.75;30.59;102881.22;5094266;28;20066;-56
2023/01/28 08:55:26;;;;;;;13.55;8.63;;;;;;;23.80;30.57;102891.09;5093908;28;20092;-51
2023/01/28 08:57:53;;;;;;;14.30;9.52;;;;;;;23.80;30.68;102895.44;5093632;28;20020;-51
2023/01/28 09:00:22;;;;;;;11.52;8.27;;;;;;;23.79;30.79;102893.63;5093664;28;20039;-56
2023/01/28 09:02:53;;;;;;;11.98;7.20;;;;;;;23.80;30.72;102901.59;5076064;28;20482;-53
2023/01/28 09:05:21;;;;;;;11.82;7.30;;;;;;;23.81;30.60;102916.47;5093438;28;20036;-49
2023/01/28 09:07:49;;;;;;;10.60;5.97;;;;;;;23.80;30.22;102914.69;5075762;28;20478;-53
2023/01/28 09:10:19;;;;;;;11.73;6.65;;;;;;;23.80;30.75;102922.56;5075943;28;20040;-49
2023/01/28 09:12:48;;;;;;;12.32;7.07;;;;;;;23.83;30.62;102921.78;5093424;28;20482;-39
2023/01/28 09:15:15;;;;;;;9.80;6.65;;;;;;;23.85;30.39;102916.59;5093243;28;20028;-56
2023/01/28 09:17:43;;;;;;;11.55;6.88;;;;;;;23.81;30.46;102926.97;5075459;28;20059;-54
2023/01/28 09:20:11;;;;;;;9.25;5.80;;;;;;;23.72;30.28;102908.19;5093723;28;20031;-50
2023/01/28 09:22:39;;;;;;;9.25;6.50;;;;;;;23.81;30.61;102921.72;5093861;28;20501;-50
2023/01/28 09:25:07;;;;;;;10.77;6.70;;;;;;;23.82;30.60;102935.72;5093378;28;20039;-40
2023/01/28 09:27:34;;;;;;;15.45;6.30;;;;;;;23.81;30.48;102931.28;5093543;28;20409;-52
2023/01/28 09:30:02;;;;;;;11.98;6.97;;;;;;;23.79;30.25;102926.00;5075308;28;20107;-45
2023/01/28 09:32:30;;;;;;;9.85;6.13;;;;;;;23.80;30.45;102933.03;5093312;28;20028;-53
2023/01/28 09:34:57;;;;;;;9.20;5.45;;;;;;;23.78;30.60;102931.16;5093251;28;20095;-54
2023/01/28 09:37:25;;;;;;;9.48;6.07;;;;;;;23.80;30.42;102937.34;5059206;28;20537;-39
2023/01/28 09:39:52;;;;;;;8.90;6.18;;;;;;;23.81;30.35;102939.16;5092074;28;20058;-53
2023/01/28 09:42:34;;;;;;;9.65;5.80;;;;;;;23.76;30.25;102941.56;5092860;28;20371;-55
2023/01/28 09:45:16;;;;;;;9.38;5.65;;;;;;;23.78;30.21;102944.25;5090318;28;20080;-52
2023/01/28 09:47:58;;;;;;;10.23;5.78;;;;;;;23.79;30.10;102944.34;5077111;28;20035;-43
2023/01/28 09:50:31;;;;;;;9.10;5.65;;;;;;;23.78;30.18;102950.41;5093508;28;20028;-39
2023/01/28 09:53:13;;;;;;;8.52;5.15;;;;;;;23.76;29.97;102952.06;5093205;28;20024;-41
2023/01/28 09:55:44;;;;;;;9.77;5.07;;;;;;;23.78;30.26;102960.88;5092500;28;20036;-45
2023/01/28 09:58:14;;;;;;;6.68;5.05;;;;;;;23.78;30.34;102959.97;5074673;28;20478;-47
2023/01/28 10:00:46;;;;;;;8.75;5.40;;;;;;;23.78;30.19;102960.88;5092778;28;20111;-54
2023/01/28 10:03:23;;;;;;;13.15;5.40;;;;;;;23.76;30.27;102962.53;5092654;28;20144;-39
2023/01/28 10:06:13;;;;;;;9.63;5.10;;;;;;;23.77;30.06;102960.81;5092504;28;20417;-56
2023/01/28 10:09:00;;;;;;;8.45;5.20;;;;;;;23.79;30.34;102970.56;5090668;28;20103;-39
2023/01/28 10:11:40;;;;;;;7.75;4.70;;;;;;;23.73;30.09;102978.13;5071905;28;20032;-39
2023/01/28 10:14:31;;;;;;;7.03;4.13;;;;;;;23.71;30.09;102965.78;5089954;28;20052;-40
2023/01/28 10:17:03;;;;;;;6.82;4.22;;;;;;;23.74;29.99;102973.78;5082315;28;20036;-55
2023/01/28 10:19:36;;;;;;;5.68;3.67;;;;;;;23.73;30.11;102983.38;5074734;28;20024;-39
2023/01/28 10:22:13;;;;;;;9.45;5.50;;;;;;;23.73;29.96;102972.88;5074530;28;20487;-42
2023/01/28 10:24:48;;;;;;;7.32;4.40;;;;;;;23.76;30.25;102977.34;5074232;28;20032;-53
2023/01/28 10:27:21;;;;;;;9.18;4.78;;;;;;;23.80;30.33;102968.81;5092247;28;20048;-42
2023/01/28 10:29:51;;;;;;;7.03;4.30;;;;;;;23.78;30.08;102980.94;5092248;28;20036;-40
2023/01/28 10:32:38;;;;;;;6.90;4.43;;;;;;;23.74;30.19;102976.41;5092226;28;20028;-39
2023/01/28 10:35:06;;;;;;;5.68;3.80;;;;;;;23.75;30.26;102981.72;5073545;28;20035;-42
2023/01/28 10:37:36;;;;;;;6.03;3.85;;;;;;;23.73;30.17;102978.13;5071366;28;20069;-39
2023/01/28 10:40:05;;;;;;;6.75;4.25;;;;;;;23.74;30.14;102984.28;5089444;28;20412;-51
2023/01/28 10:42:35;;;;;;;8.93;4.88;;;;;;;23.74;30.37;102979.03;5092026;28;20032;-45
2023/01/28 10:45:26;;;;;;;8.15;4.40;;;;;;;23.75;30.17;102991.28;5091980;28;20061;-39
2023/01/28 10:48:27;;;;;;;6.80;4.28;;;;;;;23.76;30.27;102987.84;5084935;28;20514;-45
2023/01/28 10:51:00;;;;;;;8.43;4.05;;;;;;;23.73;30.31;102974.63;5090764;28;20048;-49
2023/01/28 10:53:38;;;;;;;8.00;4.30;;;;;;;23.72;30.22;102975.44;5092121;28;20024;-40
2023/01/28 10:56:30;;;;;;;6.43;3.72;;;;;;;23.77;30.20;102984.38;5091415;28;20131;-45
2023/01/28 10:59:00;;;;;;;8.52;3.90;;;;;;;23.75;30.29;102971.22;5056906;28;20060;-50
2023/01/28 11:01:46;;;;;;;7.90;4.70;;;;;;;23.78;30.15;102973.09;5091907;28;20016;-46
2023/01/28 11:04:18;;;;;;;8.50;4.40;;;;;;;23.82;30.08;102972.41;5089787;28;20042;-40
2023/01/28 11:06:54;;;;;;;7.75;4.53;;;;;;;23.79;30.08;102972.25;5091895;28;20101;-48
2023/01/28 11:09:26;;;;;;;6.32;3.75;;;;;;;23.80;30.26;102963.56;5091689;28;20031;-47
2023/01/28 11:11:53;;;;;;;6.63;3.42;;;;;;;23.81;29.99;102958.41;5091328;28;20055;-45
2023/01/28 11:14:22;;;;;;;6.90;3.40;;;;;;;23.80;30.14;102955.72;5091107;28;20032;-39
2023/01/28 11:16:52;;;;;;;6.47;3.90;;;;;;;23.81;30.31;102952.25;5091777;28;20559;-56
2023/01/28 11:19:22;;;;;;;6.00;3.38;;;;;;;23.81;30.39;102939.16;5073641;28;20032;-40
2023/01/28 11:21:53;;;;;;;5.72;3.25;;;;;;;23.78;30.14;102942.53;5073328;28;20024;-57
2023/01/28 11:24:25;;;;;;;5.35;3.25;;;;;;;23.79;30.63;102941.72;5073577;28;20025;-51
2023/01/28 11:26:55;;;;;;;6.47;2.65;;;;;;;23.74;30.42;102927.50;5073346;28;20413;-56
2023/01/28 11:29:23;;;;;;;6.45;3.17;;;;;;;23.81;30.59;102940.06;5091454;28;20035;-43
2023/01/28 11:31:52;;;;;;;7.68;4.00;;;;;;;23.85;30.13;102930.59;5091524;28;20142;-42
2023/01/28 11:34:19;;;;;;;6.07;3.70;;;;;;;23.82;30.16;102923.53;5073122;28;20032;-51
2023/01/28 11:37:16;;;;;;;5.72;3.25;;;;;;;23.83;30.14;102934.88;5091548;28;20133;-55
2023/01/28 11:39:43;;;;;;;6.80;3.22;;;;;;;23.89;30.46;102921.16;5082487;28;20040;-55
2023/01/28 11:42:18;;;;;;;5.95;3.33;;;;;;;23.94;30.20;102919.63;5089234;28;20024;-46
2023/01/28 11:44:47;;;;;;;7.03;3.45;;;;;;;23.91;30.16;102920.38;5069827;28;20028;-56
2023/01/28 11:47:37;;;;;;;5.72;3.47;;;;;;;23.84;30.09;102913.09;5071104;28;20036;-57
2023/01/28 11:50:24;;;;;;;5.55;3.45;;;;;;;23.86;30.44;102910.53;5064275;28;20046;-51
2023/01/28 11:53:10;;;;;;;7.20;3.67;;;;;;;23.88;30.26;102917.66;5083019;28;20032;-56
2023/01/28 11:55:51;;;;;;;8.35;3.22;;;;;;;23.85;30.50;102901.78;5082925;28;20036;-48
2023/01/28 11:58:23;;;;;;;6.90;2.97;;;;;;;23.83;29.93;102895.56;5089522;28;20501;-56
2023/01/28 12:01:09;;;;;;;7.40;3.83;;;;;;;23.88;30.28;102901.00;5089766;28;21241;-53
2023/01/28 12:04:15;;;;;;;7.05;2.92;;;;;;;23.89;30.06;102895.84;5093263;28;20036;-40
2023/01/28 12:06:58;;;;;;;5.72;2.92;;;;;;;23.88;29.97;102894.06;5085022;28;20486;-51
2023/01/28 12:09:29;;;;;;;4.22;2.42;;;;;;;23.94;30.21;102882.94;5092899;28;20137;-56
2023/01/28 12:12:27;;;;;;;9.07;3.90;;;;;;;23.93;30.33;102889.88;5094417;28;20035;-57
2023/01/28 12:15:17;;;;;;;6.43;3.55;;;;;;;23.97;30.04;102883.13;5091746;28;20051;-44
2023/01/28 12:18:05;;;;;;;4.95;2.90;;;;;;;23.98;29.92;102884.91;5087723;28;20040;-57
2023/01/28 12:21:05;;;;;;;6.38;3.15;;;;;;;23.90;30.01;102881.00;5086089;28;20051;-58
2023/01/28 12:23:46;;;;;;;6.25;3.10;;;;;;;23.92;30.06;102880.22;5092440;28;20040;-57
2023/01/28 12:26:19;;;;;;;5.88;3.03;;;;;;;23.97;30.05;102880.50;5092241;28;20048;-56
2023/01/28 12:29:24;;;;;;;4.97;2.92;;;;;;;23.98;29.91;102874.41;5093381;28;20036;-53
2023/01/28 12:32:38;;;;;;;6.93;2.80;;;;;;;23.99;29.77;102883.16;5093558;28;20024;-54
2023/01/28 12:35:31;;;;;;;4.65;2.42;;;;;;;23.99;29.73;102876.22;5089531;28;20090;-40
2023/01/28 12:38:22;;;;;;;4.85;2.53;;;;;;;24.00;30.17;102875.34;5089759;28;20039;-57
2023/01/28 12:40:55;;;;;;;4.53;3.00;;;;;;;24.04;29.82;102872.03;5086011;28;20055;-42
2023/01/28 12:43:23;;;;;;;3.95;2.22;;;;;;;24.00;29.97;102877.97;5075869;28;20068;-53
2023/01/28 12:46:14;;;;;;;5.82;2.60;;;;;;;23.96;30.17;102879.56;5093017;28;20494;-58
2023/01/28 12:48:47;;;;;;;7.82;3.20;;;;;;;23.95;30.09;102859.41;5073164;28;20119;-57
2023/01/28 12:51:53;;;;;;;8.60;3.20;;;;;;;23.91;29.75;102867.94;5091534;28;20478;-40
2023/01/28 12:54:27;;;;;;;6.05;3.25;;;;;;;23.94;29.66;102869.84;5084154;28;20383;-58
2023/01/28 12:56:55;;;;;;;9.98;3.47;;;;;;;23.97;29.61;102862.13;5074955;28;20035;-57
2023/01/28 12:59:44;;;;;;;6.32;2.85;;;;;;;23.93;29.88;102857.56;5092792;28;20059;-57
2023/01/28 13:02:11;;;;;;;7.05;2.83;;;;;;;23.96;29.87;102858.59;5090860;28;20070;-54
2023/01/28 13:04:46;;;;;;;11.35;2.65;;;;;;;23.97;29.79;102851.66;5092906;28;20114;-41
2023/01/28 13:07:17;;;;;;;5.43;2.60;;;;;;;23.97;29.63;102852.53;5091008;28;20028;-56
2023/01/28 13:09:53;;;;;;;8.80;2.92;;;;;;;23.96;29.90;102847.22;5074854;28;20059;-55
2023/01/28 13:12:22;;;;;;;7.47;2.47;;;;;;;24.01;29.40;102847.44;5092445;28;20035;-53
2023/01/28 13:14:50;;;;;;;9.20;2.60;;;;;;;23.99;29.45;102842.13;5092573;28;20020;-44
2023/01/28 13:17:29;;;;;;;8.68;2.75;;;;;;;24.02;29.66;102834.38;5074498;28;20035;-39
2023/01/28 13:19:57;;;;;;;7.20;2.65;;;;;;;24.02;29.77;102834.38;5090577;28;20020;-58
2023/01/28 13:22:31;;;;;;;9.57;2.22;;;;;;;24.01;29.96;102829.06;5092862;28;20115;-57
2023/01/28 13:25:18;;;;;;;8.10;2.43;;;;;;;23.98;29.34;102829.84;5092602;28;20111;-52
2023/01/28 13:28:04;;;;;;;7.07;2.25;;;;;;;23.97;29.76;102815.84;5090595;28;20051;-57
2023/01/28 13:30:34;;;;;;;9.70;3.63;;;;;;;24.01;29.93;102824.72;5090688;28;20071;-51
2023/01/28 13:33:04;;;;;;;10.35;3.20;;;;;;;24.03;29.79;102819.56;5092380;28;20032;-52
2023/01/28 13:35:42;;;;;;;7.65;3.40;;;;;;;24.00;29.76;102815.06;5092189;28;20024;-52
2023/01/28 13:38:17;;;;;;;8.40;2.67;;;;;;;23.98;29.84;102808.88;5091774;28;20024;-55
2023/01/28 13:40:54;;;;;;;7.05;2.65;;;;;;;24.00;30.04;102812.44;5073573;28;20020;-54
2023/01/28 13:43:42;;;;;;;7.00;3.40;;;;;;;24.00;29.80;102806.31;5091573;28;20097;-53
2023/01/28 13:46:13;;;;;;;6.47;2.78;;;;;;;24.05;29.91;102808.28;5057473;28;20039;-40
2023/01/28 13:48:44;;;;;;;4.65;2.33;;;;;;;24.04;29.89;102813.47;5091653;28;20092;-57
2023/01/28 13:51:32;;;;;;;5.88;2.75;;;;;;;24.05;30.13;102800.44;5073840;28;20368;-54
2023/01/28 13:54:20;;;;;;;6.25;2.90;;;;;;;24.01;29.76;102808.09;5074264;28;20550;-57
2023/01/28 13:56:57;;;;;;;7.70;2.50;;;;;;;24.08;30.04;102804.88;5073723;28;20036;-55
2023/01/28 13:59:39;;;;;;;5.97;2.30;;;;;;;24.06;30.07;102804.84;5091279;28;20530;-54
2023/01/28 14:02:31;;;;;;;4.28;2.30;;;;;;;24.04;30.15;102805.63;5090499;28;20024;-57
2023/01/28 14:05:16;;;;;;;7.63;2.90;;;;;;;23.99;29.77;102800.19;5081938;28;20080;-56
2023/01/28 14:07:43;;;;;;;;;;;;;;;24.02;30.19;102795.03;5074171;28;20028;-52
2023/01/28 14:10:14;;;;;;;6.25;2.65;;;;;;;24.02;30.14;102792.44;5090939;28;19919;-56
2023/01/28 14:13:05;;;;;;;5.65;2.60;;;;;;;24.03;30.02;102799.47;5074046;28;20103;-57
2023/01/28 14:15:51;;;;;;;6.35;2.60;;;;;;;24.03;29.97;102799.47;5066780;28;20722;-54
2023/01/28 14:18:42;;;;;;;5.47;2.28;;;;;;;24.05;29.97;102807.41;5091907;28;20031;-51
2023/01/28 14:21:13;;;;;;;5.95;2.25;;;;;;;24.03;29.66;102804.72;5071354;28;20024;-56
2023/01/28 14:23:47;;;;;;;5.72;2.28;;;;;;;24.03;30.28;102798.59;5091849;28;20024;-50
2023/01/28 14:26:38;;;;;;;4.80;2.17;;;;;;;24.01;29.74;102806.38;5090485;28;20163;-51
2023/01/28 14:29:27;;;;;;;4.93;1.92;;;;;;;24.05;30.10;102804.78;5090751;28;20282;-40
2023/01/28 14:31:55;;;;;;;5.40;2.33;;;;;;;24.09;29.75;102804.06;5049386;28;20482;-51
2023/01/28 14:34:28;;;;;;;5.18;2.38;;;;;;;24.07;29.64;102808.38;5090621;28;20044;-40
2023/01/28 14:37:09;;;;;;;8.25;2.95;;;;;;;24.02;29.75;102807.28;5073817;28;20032;-41
2023/01/28 14:39:42;;;;;;;9.45;2.30;;;;;;;24.07;29.73;102819.75;5071974;28;20096;-43
2023/01/28 14:42:31;;;;;;;6.65;2.05;;;;;;;24.07;29.73;102824.97;5091312;28;20028;-50
2023/01/28 14:45:22;;;;;;;7.63;2.75;;;;;;;24.08;30.00;102833.72;5091031;28;20111;-45
2023/01/28 14:48:09;;;;;;;5.47;2.10;;;;;;;24.09;29.98;102828.56;5083170;28;20482;-52
2023/01/28 14:51:15;;;;;;;4.63;2.00;;;;;;;24.08;29.89;102833.72;5082837;28;20115;-54
2023/01/28 14:54:09;;;;;;;5.63;2.10;;;;;;;24.12;29.64;102828.72;5089732;28;20046;-46
2023/01/28 14:56:47;;;;;;;6.15;2.40;;;;;;;24.12;29.41;102827.78;5069021;28;20045;-47
2023/01/28 14:59:18;;;;;;;4.50;2.47;;;;;;;24.10;29.62;102826.81;5090858;28;20032;-40
2023/01/28 15:01:47;;;;;;;5.65;2.25;;;;;;;24.08;29.67;102839.88;5073957;28;20024;-57
2023/01/28 15:04:34;;;;;;;5.57;2.72;;;;;;;24.07;29.80;102832.84;5090293;28;20038;-51
2023/01/28 15:07:16;;;;;;;3.58;1.90;;;;;;;24.09;29.49;102831.19;5088297;28;20028;-39
2023/01/28 15:09:44;;;;;;;3.97;2.05;;;;;;;24.10;29.40;102842.56;5069090;28;20039;-54
2023/01/28 15:12:12;;;;;;;4.18;2.15;;;;;;;24.15;29.55;102837.53;5091105;28;20051;-57
2023/01/28 15:14:39;;;;;;;4.60;1.85;;;;;;;24.07;29.57;102826.72;5073236;28;20024;-46
2023/01/28 15:17:12;;;;;;;4.32;2.00;;;;;;;24.10;29.61;102838.22;5091025;28;20043;-43
2023/01/28 15:19:40;;;;;;;5.22;2.03;;;;;;;24.14;29.76;102833.13;5053161;28;20074;-46
2023/01/28 15:22:08;;;;;;;2.50;1.65;;;;;;;24.08;29.42;102829.41;5090378;28;20039;-57
2023/01/28 15:24:35;;;;;;;3.53;2.13;;;;;;;24.11;29.54;102834.78;5090873;28;20024;-54
2023/01/28 15:27:03;;;;;;;4.55;2.63;;;;;;;24.11;29.47;102849.59;5090037;28;20055;-50
2023/01/28 15:29:33;;;;;;;3.78;2.17;;;;;;;24.17;29.96;102844.63;5072105;28;20548;-56
2023/01/28 15:32:01;;;;;;;4.38;2.20;;;;;;;24.13;29.41;102853.19;5090934;28;20032;-40
2023/01/28 15:34:29;;;;;;;4.53;1.90;;;;;;;24.12;29.87;102857.56;5090651;28;20039;-53
2023/01/28 15:36:57;;;;;;;5.85;2.38;;;;;;;24.08;29.81;102860.88;5072670;28;20101;-47
2023/01/28 15:39:26;;;;;;;5.05;2.00;;;;;;;24.11;29.51;102850.50;5094537;28;20024;-55
2023/01/28 15:41:56;;;;;;;4.65;2.25;;;;;;;24.11;29.47;102858.38;5076713;28;20121;-54
2023/01/28 15:44:30;;;;;;;7.70;2.20;;;;;;;24.08;29.76;102866.09;5094479;28;20161;-43
2023/01/28 15:46:59;;;;;;;9.25;2.47;;;;;;;24.10;29.27;102869.69;5094641;28;20032;-57
2023/01/28 15:49:37;;;;;;;9.90;2.67;;;;;;;24.10;29.47;102863.53;5094520;28;20027;-57
2023/01/28 15:52:04;;;;;;;6.07;1.80;;;;;;;24.13;29.40;102874.16;5076105;28;20035;-40
2023/01/28 15:54:32;;;;;;;6.82;2.30;;;;;;;24.06;29.44;102870.38;5094422;28;20108;-43
2023/01/28 15:57:10;;;;;;;8.30;2.22;;;;;;;24.07;29.53;102884.41;5094130;28;20058;-56
2023/01/28 15:59:38;;;;;;;4.70;2.13;;;;;;;24.06;29.75;102873.00;5059363;28;20347;-42
2023/01/28 16:02:25;;;;;;;8.73;2.58;;;;;;;24.10;29.77;102887.13;5093775;28;20024;-54
2023/01/28 16:05:03;;;;;;;12.23;2.40;;;;;;;24.14;29.64;102885.56;5075743;28;20201;-41
2023/01/28 16:07:32;;;;;;;11.38;2.35;;;;;;;24.18;29.76;102887.47;5094124;28;20125;-58
2023/01/28 16:10:02;;;;;;;7.32;2.10;;;;;;;24.17;29.91;102880.41;5093552;28;20108;-49
2023/01/28 16:12:29;;;;;;;11.82;2.63;;;;;;;24.15;30.17;102877.75;5092038;28;20024;-56
2023/01/28 16:15:01;;;;;;;5.93;2.22;;;;;;;24.13;30.16;102876.78;5093732;28;20403;-58
2023/01/28 16:17:31;;;;;;;7.20;2.40;;;;;;;24.21;30.34;102882.34;5093845;28;20042;-57
2023/01/28 16:20:06;;;;;;;6.00;2.30;;;;;;;24.17;30.18;102880.41;5075240;28;20490;-58
2023/01/28 16:22:36;;;;;;;7.43;2.20;;;;;;;24.07;30.53;102866.94;5047138;28;20057;-43
2023/01/28 16:25:25;;;;;;;6.20;2.20;;;;;;;23.87;30.55;102833.69;5036441;28;20025;-44
2023/01/28 16:27:53;;;;;;;10.48;2.10;;;;;;;24.20;30.37;102880.56;5050618;28;20548;-53
2023/01/28 16:30:20;;;;;;;8.27;2.45;;;;;;;24.24;30.83;102891.25;5042165;28;20491;-60
2023/01/28 16:32:47;;;;;;;3.28;1.85;;;;;;;24.34;30.70;102889.91;5050944;28;20027;-44
2023/01/28 16:35:21;;;;;;;8.70;2.53;;;;;;;24.37;30.29;102900.53;5033082;28;20163;-51
2023/01/28 16:37:50;;;;;;;5.17;2.43;;;;;;;24.42;30.65;102901.63;5036280;28;20032;-58
2023/01/28 16:40:20;;;;;;;6.28;2.47;;;;;;;24.42;30.69;102901.63;5045492;28;20270;-56
2023/01/28 16:42:48;;;;;;;4.75;2.65;;;;;;;24.46;30.21;102897.41;5050512;28;20060;-55
2023/01/28 16:45:18;;;;;;;5.00;2.28;;;;;;;24.43;30.20;102895.56;5050709;28;20068;-47
2023/01/28 16:47:45;;;;;;;8.55;2.75;;;;;;;24.43;30.44;102895.56;5049881;28;20091;-39
2023/01/28 16:50:17;;;;;;;11.88;2.10;;;;;;;24.42;30.38;102888.50;5042446;28;20036;-55
2023/01/28 16:52:46;;;;;;;4.45;2.38;;;;;;;24.43;30.02;102892.94;5035621;28;20040;-55
2023/01/28 16:55:16;;;;;;;4.97;2.40;;;;;;;24.54;30.25;102890.75;5017918;28;20072;-57
2023/01/28 16:57:44;;;;;;;3.95;1.80;;;;;;;24.64;29.84;102897.28;5035793;28;20025;-53
2023/01/28 17:00:18;;;;;;;4.78;2.00;;;;;;;24.56;29.71;102901.28;5019268;28;20034;-40
2023/01/28 17:02:46;;;;;;;5.65;1.85;;;;;;;24.51;29.89;102902.81;5035235;28;20498;-58
2023/01/28 17:05:14;;;;;;;7.53;2.10;;;;;;;24.48;29.77;102902.72;5037935;28;20480;-56
2023/01/28 17:07:42;;;;;;;7.03;1.67;;;;;;;24.44;30.05;102914.78;5035458;28;20083;-47
2023/01/28 17:10:09;;;;;;;6.43;1.92;;;;;;;24.51;30.08;102915.94;5026448;28;20048;-56
2023/01/28 17:12:38;;;;;;;5.82;2.13;;;;;;;24.52;29.51;102923.91;5050255;28;20525;-40
2023/01/28 17:15:06;;;;;;;3.63;1.75;;;;;;;24.46;29.70;102910.50;5046808;28;20038;-56
2023/01/28 17:17:34;;;;;;;3.85;1.80;;;;;;;24.52;30.03;102923.91;5035152;28;20468;-54
2023/01/28 17:20:01;;;;;;;5.25;1.67;;;;;;;24.55;29.70;102934.53;5043361;28;20033;-54
2023/01/28 17:22:29;;;;;;;2.88;1.50;;;;;;;24.58;29.82;102936.38;5050939;28;20029;-57
2023/01/28 17:24:56;;;;;;;4.88;1.73;;;;;;;24.57;29.50;102935.47;5040090;28;20029;-40
2023/01/28 17:27:24;;;;;;;4.05;1.40;;;;;;;24.62;29.75;102945.25;5050180;28;20495;-54
2023/01/28 17:29:53;;;;;;;4.80;2.40;;;;;;;24.57;29.65;102945.06;5050974;28;20041;-58
2023/01/28 17:32:20;;;;;;;5.85;2.42;;;;;;;24.57;29.86;102951.19;5051051;28;20147;-42
2023/01/28 17:34:47;;;;;;;3.72;2.10;;;;;;;24.55;29.93;102946.72;5050206;28;20045;-58
2023/01/28 17:37:15;;;;;;;3.08;1.80;;;;;;;24.55;29.75;102951.97;5050630;28;20175;-58
2023/01/28 17:39:43;;;;;;;5.28;2.05;;;;;;;24.52;29.89;102947.50;5028294;28;20517;-58
2023/01/28 17:42:10;;;;;;;7.18;3.75;;;;;;;24.56;29.50;102951.16;5034673;28;20025;-46
2023/01/28 17:44:38;;;;;;;12.45;7.53;;;;;;;24.57;29.09;102953.81;5037563;28;20029;-40
2023/01/28 17:47:05;;;;;;;21.42;13.82;;;;;;;24.58;29.24;102955.63;5038318;28;20079;-50
2023/01/28 17:49:32;;;;;;;30.15;16.63;;;;;;;24.52;29.57;102958.00;5044519;28;20545;-56
2023/01/28 17:52:00;;;;;;;50.55;24.00;;;;;;;24.58;29.88;102960.00;5044825;28;20032;-57
2023/01/28 17:54:27;;;;;;;59.33;29.67;;;;;;;24.65;29.28;102961.13;5043278;28;20041;-51
2023/01/28 17:56:55;;;;;;;68.13;32.92;;;;;;;24.64;29.85;102957.63;5044353;28;20067;-40
2023/01/28 17:59:24;;;;;;;68.32;31.20;;;;;;;24.61;29.75;102962.75;5049131;28;20162;-57
2023/01/28 18:01:53;;;;;;;69.40;31.98;;;;;;;24.62;29.74;102961.91;5050517;28;20021;-53
2023/01/28 18:04:20;;;;;;;86.07;33.97;;;;;;;24.63;29.81;102961.09;5037243;28;20503;-56
2023/01/28 18:06:50;;;;;;;78.85;32.72;;;;;;;24.69;29.38;102960.44;5032681;28;20417;-56
2023/01/28 18:09:18;;;;;;;70.18;33.78;;;;;;;24.63;29.81;102961.09;5015173;28;20026;-39
2023/01/28 18:11:46;;;;;;;67.38;31.67;;;;;;;24.66;29.47;102962.94;5033105;28;20468;-54
2023/01/28 18:14:13;;;;;;;71.75;32.80;;;;;;;24.62;29.81;102964.53;5032711;28;20025;-56
2023/01/28 18:16:40;;;;;;;67.72;29.75;;;;;;;24.62;30.05;102963.63;5032286;28;20029;-54
2023/01/28 18:19:09;;;;;;;63.03;29.42;;;;;;;24.58;29.96;102962.63;5034730;28;20037;-55
2023/01/28 18:21:38;;;;;;;63.88;27.92;;;;;;;24.61;29.94;102967.09;5050319;28;20028;-40
2023/01/28 18:24:06;;;;;;;56.80;25.27;;;;;;;24.62;29.76;102972.41;5050478;28;20043;-57
2023/01/28 18:26:34;;;;;;;51.25;23.70;;;;;;;24.61;29.92;102964.47;5032598;28;20053;-44
2023/01/28 18:29:01;;;;;;;48.83;23.00;;;;;;;24.64;29.85;102967.22;5046812;28;20083;-40
2023/01/28 18:31:29;;;;;;;44.75;22.63;;;;;;;24.63;29.89;102962.78;5034654;28;20025;-41
2023/01/28 18:33:56;;;;;;;45.25;21.67;;;;;;;24.66;29.75;102974.31;5034430;28;20985;-54
2023/01/28 18:36:24;;;;;;;48.03;21.95;;;;;;;24.68;29.58;102971.75;5033455;28;20125;-45
2023/01/28 18:38:51;;;;;;;44.95;20.92;;;;;;;24.66;30.06;102974.31;5033774;28;20031;-53
2023/01/28 18:41:19;;;;;;;43.15;19.83;;;;;;;24.67;29.88;102972.59;5034247;28;20505;-54
2023/01/28 18:43:46;;;;;;;39.63;19.08;;;;;;;24.67;29.95;102980.47;5037067;28;20084;-55
2023/01/28 18:46:16;;;;;;;41.88;18.90;;;;;;;24.65;30.01;102972.56;5045036;28;20029;-57
2023/01/28 18:48:45;;;;;;;34.53;17.48;;;;;;;24.68;29.62;102979.63;5033734;28;20029;-40
2023/01/28 18:51:13;;;;;;;34.90;17.05;;;;;;;24.69;29.87;102976.19;5048479;28;20071;-44
2023/01/28 18:53:41;;;;;;;31.63;14.93;;;;;;;24.70;29.86;102975.38;5047947;28;20033;-46
2023/01/28 18:56:08;;;;;;;30.23;15.55;;;;;;;24.72;29.76;102977.25;5019324;28;20037;-40
2023/01/28 18:58:35;;;;;;;32.90;14.45;;;;;;;24.73;29.61;102975.53;5033748;28;20021;-45
2023/01/28 19:01:07;;;;;;;28.20;13.15;;;;;;;24.77;29.32;102979.16;5046570;28;20427;-43
2023/01/28 19:03:35;;;;;;;27.02;13.00;;;;;;;24.71;29.35;102978.06;5048008;28;20094;-56
2023/01/28 19:06:05;;;;;;;23.88;12.02;;;;;;;24.70;29.47;102981.53;5020243;28;20395;-40
2023/01/28 19:08:34;;;;;;;24.92;11.88;;;;;;;24.70;29.56;102984.16;5044565;28;20556;-41
